Terminal Aerodrome Forecast
Issued by NWS Upton, NY

Home | Current Version | Previous Version | Text Only | Print | Product List | Glossary On
Versions: 1 2 3 4 5 6 7 8 9 10 11 12 13 14 15 16 17 18 19 20 21 22 23 24 25 26 27 28 29 30 31
644
FTUS41 KOKX 231939 AAA
TAFBDR
TAF AMD
KBDR 231939Z 2320/2418 11011KT P6SM BKN100
     FM240000 11013KT P6SM FEW025 BKN050
      TEMPO 2400/2404 BKN025
     FM240400 09016G22KT P6SM VCSH BKN025
     FM240600 08017G23KT 6SM -SHRA SCT015 OVC025
     FM240800 07017G23KT 4SM SHRA BR OVC015
     FM241000 06015G21KT 4SM SHRA OVC008
     FM241500 06016G22KT 6SM -SHRA OVC015=

USA.gov is the U.S. government's official web portal to all federal, state and local government web resources and services.